KSKA/SKA METAR and TAF weather

Enter ICAO airport designator
Station Type Date Time Source
KSKA METAR 2019/12/09 13:37 UTC NOAA

KSKA 091337Z 00000KT 3/8SM R23/2400V2600FT FZFG VV001 M04/M04 A3019 RMK A02A SLP251 $


Station Type Date Time Source
KSKA Decoded METAR 2019/12/09 13:37 UTC NOAA

Fairchild Air Force Base, WA, United States (KSKA) 47-37N 117-39W
Dec 09, 2019 - 08:37 AM EST / 2019.12.09 1337 UTC
Wind: Calm (direction variable):0
Visibility: 3/8 mile(s):0
Sky conditions: obscured
Weather: freezing fog
Temperature: 24 F (-4 C)
Dew Point: 24 F (-4 C)
Relative Humidity: 100%
Pressure (altimeter): 30.19 in. Hg (1022 hPa)
ob: KSKA 091337Z 00000KT 3/8SM R23/2400V2600FT FZFG VV001 M04/M04 A3019 RMK A02A SLP251
cycle: 13

Station Type Date Time Source
KSKA TAF 2019/12/09 11:06 UTC NOAA

TAF TAF KSKA 091100Z 0911/1017 VRB02KT 0800 FZFG OVC001 QNH3017INS
BECMG 0919/0920 17007KT 4800 BR SCT003 BKN025 QNH3018INS
BECMG 1002/1003 08006KT 0800 FZFG OVC002 QNH3016INS TX01/0921Z TNM04/0911Z

Example: see airport list